sensor_id;sensor_type;location;lat;lon;timestamp;temperature;humidity
21834;DHT22;11079;51.092;3.458;2022-12-29T00:00:29;11.60;99.90
21834;DHT22;11079;51.092;3.458;2022-12-29T00:03:20;11.60;99.90
21834;DHT22;11079;51.092;3.458;2022-12-29T00:06:37;11.60;99.90
21834;DHT22;11079;51.092;3.458;2022-12-29T00:09:10;11.60;99.90
21834;DHT22;11079;51.092;3.458;2022-12-29T00:11:50;11.60;99.90
21834;DHT22;11079;51.092;3.458;2022-12-29T00:14:47;11.60;99.90
21834;DHT22;11079;51.092;3.458;2022-12-29T00:17:31;11.60;99.90
21834;DHT22;11079;51.092;3.458;2022-12-29T00:20:21;11.70;99.90
21834;DHT22;11079;51.092;3.458;2022-12-29T00:23:08;11.70;99.90
21834;DHT22;11079;51.092;3.458;2022-12-29T00:26:02;11.70;99.90
21834;DHT22;11079;51.092;3.458;2022-12-29T00:28:47;11.70;99.90
21834;DHT22;11079;51.092;3.458;2022-12-29T00:31:31;11.70;99.90
21834;DHT22;11079;51.092;3.458;2022-12-29T00:34:21;11.70;99.90
21834;DHT22;11079;51.092;3.458;2022-12-29T00:37:06;11.70;99.90
21834;DHT22;11079;51.092;3.458;2022-12-29T00:39:37;11.70;99.90
21834;DHT22;11079;51.092;3.458;2022-12-29T00:42:22;11.80;99.90
21834;DHT22;11079;51.092;3.458;2022-12-29T00:45:07;11.70;99.90
21834;DHT22;11079;51.092;3.458;2022-12-29T00:47:44;11.60;99.90
21834;DHT22;11079;51.092;3.458;2022-12-29T00:50:36;11.60;99.90
21834;DHT22;11079;51.092;3.458;2022-12-29T00:53:37;11.40;99.90
21834;DHT22;11079;51.092;3.458;2022-12-29T00:56:35;11.40;99.90
21834;DHT22;11079;51.092;3.458;2022-12-29T00:59:23;11.40;99.90
21834;DHT22;11079;51.092;3.458;2022-12-29T01:02:03;11.40;99.90
21834;DHT22;11079;51.092;3.458;2022-12-29T01:05:21;11.40;99.90
21834;DHT22;11079;51.092;3.458;2022-12-29T01:08:15;11.50;99.90
21834;DHT22;11079;51.092;3.458;2022-12-29T01:11:16;11.50;99.90
21834;DHT22;11079;51.092;3.458;2022-12-29T01:13:46;11.50;99.90
21834;DHT22;11079;51.092;3.458;2022-12-29T01:16:18;11.50;99.90
21834;DHT22;11079;51.092;3.458;2022-12-29T01:19:22;11.50;99.90
21834;DHT22;11079;51.092;3.458;2022-12-29T01:21:56;11.60;99.90
21834;DHT22;11079;51.092;3.458;2022-12-29T01:24:26;11.70;99.90
21834;DHT22;11079;51.092;3.458;2022-12-29T01:27:29;11.70;99.90
21834;DHT22;11079;51.092;3.458;2022-12-29T01:30:29;11.70;99.90
21834;DHT22;11079;51.092;3.458;2022-12-29T01:32:58;11.70;99.90
21834;DHT22;11079;51.092;3.458;2022-12-29T01:35:45;11.80;99.90
21834;DHT22;11079;51.092;3.458;2022-12-29T01:38:25;11.80;99.90
21834;DHT22;11079;51.092;3.458;2022-12-29T01:40:55;11.90;99.90
21834;DHT22;11079;51.092;3.458;2022-12-29T01:43:20;11.90;99.90
21834;DHT22;11079;51.092;3.458;2022-12-29T01:45:51;11.90;99.90
21834;DHT22;11079;51.092;3.458;2022-12-29T01:48:19;12.00;99.90
21834;DHT22;11079;51.092;3.458;2022-12-29T01:50:50;11.90;99.90
21834;DHT22;11079;51.092;3.458;2022-12-29T01:53:25;11.90;99.90
21834;DHT22;11079;51.092;3.458;2022-12-29T01:55:58;11.90;99.90
21834;DHT22;11079;51.092;3.458;2022-12-29T01:58:29;11.90;99.90
21834;DHT22;11079;51.092;3.458;2022-12-29T02:00:56;11.80;99.90
21834;DHT22;11079;51.092;3.458;2022-12-29T02:03:24;11.90;99.90
21834;DHT22;11079;51.092;3.458;2022-12-29T02:06:07;11.90;99.90
21834;DHT22;11079;51.092;3.458;2022-12-29T02:08:35;11.90;99.90
21834;DHT22;11079;51.092;3.458;2022-12-29T02:11:02;12.00;99.90
21834;DHT22;11079;51.092;3.458;2022-12-29T02:13:28;11.90;99.90
21834;DHT22;11079;51.092;3.458;2022-12-29T02:19:29;11.80;99.90
21834;DHT22;11079;51.092;3.458;2022-12-29T02:30:45;11.20;99.90
21834;DHT22;11079;51.092;3.458;2022-12-29T02:36:20;11.00;99.90
21834;DHT22;11079;51.092;3.458;2022-12-29T02:39:23;10.70;99.90
21834;DHT22;11079;51.092;3.458;2022-12-29T02:42:13;10.70;99.90
21834;DHT22;11079;51.092;3.458;2022-12-29T02:45:53;10.60;99.90
21834;DHT22;11079;51.092;3.458;2022-12-29T02:48:48;10.40;99.90
21834;DHT22;11079;51.092;3.458;2022-12-29T02:51:30;10.40;99.90
21834;DHT22;11079;51.092;3.458;2022-12-29T02:54:01;10.40;99.90
21834;DHT22;11079;51.092;3.458;2022-12-29T02:56:46;10.40;99.90
21834;DHT22;11079;51.092;3.458;2022-12-29T02:59:19;10.30;99.90
21834;DHT22;11079;51.092;3.458;2022-12-29T03:08:55;10.10;99.90
21834;DHT22;11079;51.092;3.458;2022-12-29T03:11:32;10.20;99.90
21834;DHT22;11079;51.092;3.458;2022-12-29T03:14:32;10.20;99.90
21834;DHT22;11079;51.092;3.458;2022-12-29T03:17:46;10.10;99.90
21834;DHT22;11079;51.092;3.458;2022-12-29T03:20:31;10.20;99.90
21834;DHT22;11079;51.092;3.458;2022-12-29T03:23:00;10.20;99.90
21834;DHT22;11079;51.092;3.458;2022-12-29T03:25:31;10.30;99.90
21834;DHT22;11079;51.092;3.458;2022-12-29T03:28:09;10.30;99.90
21834;DHT22;11079;51.092;3.458;2022-12-29T03:30:39;10.30;99.90
21834;DHT22;11079;51.092;3.458;2022-12-29T03:33:17;10.40;99.90
21834;DHT22;11079;51.092;3.458;2022-12-29T03:35:47;10.40;99.90
21834;DHT22;11079;51.092;3.458;2022-12-29T03:38:27;10.50;99.90
21834;DHT22;11079;51.092;3.458;2022-12-29T03:40:58;10.50;99.90
21834;DHT22;11079;51.092;3.458;2022-12-29T03:43:26;10.60;99.90
21834;DHT22;11079;51.092;3.458;2022-12-29T03:45:52;10.60;99.90
21834;DHT22;11079;51.092;3.458;2022-12-29T03:48:19;10.60;99.90
21834;DHT22;11079;51.092;3.458;2022-12-29T03:50:44;10.60;99.90
21834;DHT22;11079;51.092;3.458;2022-12-29T03:53:10;10.70;99.90
21834;DHT22;11079;51.092;3.458;2022-12-29T03:55:36;10.80;99.90
21834;DHT22;11079;51.092;3.458;2022-12-29T03:58:02;10.80;99.90
21834;DHT22;11079;51.092;3.458;2022-12-29T04:00:28;10.70;99.90
21834;DHT22;11079;51.092;3.458;2022-12-29T04:02:53;10.70;99.90
21834;DHT22;11079;51.092;3.458;2022-12-29T04:05:20;10.80;99.90
21834;DHT22;11079;51.092;3.458;2022-12-29T04:07:45;10.70;99.90
21834;DHT22;11079;51.092;3.458;2022-12-29T04:10:11;10.80;99.90
21834;DHT22;11079;51.092;3.458;2022-12-29T04:12:37;10.70;99.90
21834;DHT22;11079;51.092;3.458;2022-12-29T04:15:04;10.60;99.90
21834;DHT22;11079;51.092;3.458;2022-12-29T04:17:29;10.60;99.90
21834;DHT22;11079;51.092;3.458;2022-12-29T04:19:55;10.60;99.90
21834;DHT22;11079;51.092;3.458;2022-12-29T04:22:41;10.50;99.90
21834;DHT22;11079;51.092;3.458;2022-12-29T04:25:07;10.40;99.90
21834;DHT22;11079;51.092;3.458;2022-12-29T04:27:32;10.40;99.90
21834;DHT22;11079;51.092;3.458;2022-12-29T04:29:58;10.40;99.90
21834;DHT22;11079;51.092;3.458;2022-12-29T04:32:23;10.40;99.90
21834;DHT22;11079;51.092;3.458;2022-12-29T04:34:49;10.40;99.90
21834;DHT22;11079;51.092;3.458;2022-12-29T04:37:15;10.60;99.90
21834;DHT22;11079;51.092;3.458;2022-12-29T04:39:40;10.60;99.90
21834;DHT22;11079;51.092;3.458;2022-12-29T04:42:06;10.60;99.90
21834;DHT22;11079;51.092;3.458;2022-12-29T04:44:31;10.70;99.90
21834;DHT22;11079;51.092;3.458;2022-12-29T04:46:57;10.80;99.90
21834;DHT22;11079;51.092;3.458;2022-12-29T04:49:23;10.80;99.90
21834;DHT22;11079;51.092;3.458;2022-12-29T04:51:49;10.80;99.90
21834;DHT22;11079;51.092;3.458;2022-12-29T04:54:14;10.70;99.90
21834;DHT22;11079;51.092;3.458;2022-12-29T04:56:41;10.80;99.90
21834;DHT22;11079;51.092;3.458;2022-12-29T04:59:06;10.80;99.90
21834;DHT22;11079;51.092;3.458;2022-12-29T05:01:32;10.80;99.90
21834;DHT22;11079;51.092;3.458;2022-12-29T05:03:58;10.80;99.90
21834;DHT22;11079;51.092;3.458;2022-12-29T05:06:26;10.80;99.90
21834;DHT22;11079;51.092;3.458;2022-12-29T05:08:52;10.80;99.90
21834;DHT22;11079;51.092;3.458;2022-12-29T05:11:18;10.80;99.90
21834;DHT22;11079;51.092;3.458;2022-12-29T05:13:46;10.70;99.90
21834;DHT22;11079;51.092;3.458;2022-12-29T05:16:15;10.60;99.90
21834;DHT22;11079;51.092;3.458;2022-12-29T05:18:41;10.60;99.90
21834;DHT22;11079;51.092;3.458;2022-12-29T05:21:06;10.60;99.90
21834;DHT22;11079;51.092;3.458;2022-12-29T05:23:32;10.70;99.90
21834;DHT22;11079;51.092;3.458;2022-12-29T05:25:58;10.70;99.90
21834;DHT22;11079;51.092;3.458;2022-12-29T05:28:24;10.70;99.90
21834;DHT22;11079;51.092;3.458;2022-12-29T05:30:50;10.80;99.90
21834;DHT22;11079;51.092;3.458;2022-12-29T05:33:20;10.70;99.90
21834;DHT22;11079;51.092;3.458;2022-12-29T05:35:46;10.70;99.90
21834;DHT22;11079;51.092;3.458;2022-12-29T05:38:11;10.80;99.90
21834;DHT22;11079;51.092;3.458;2022-12-29T05:40:37;10.80;99.90
21834;DHT22;11079;51.092;3.458;2022-12-29T05:43:02;10.90;99.90
21834;DHT22;11079;51.092;3.458;2022-12-29T05:45:28;10.90;99.90
21834;DHT22;11079;51.092;3.458;2022-12-29T05:47:54;11.00;99.90
21834;DHT22;11079;51.092;3.458;2022-12-29T05:50:19;11.00;99.90
21834;DHT22;11079;51.092;3.458;2022-12-29T05:52:47;10.90;99.90
21834;DHT22;11079;51.092;3.458;2022-12-29T05:55:13;11.00;99.90
21834;DHT22;11079;51.092;3.458;2022-12-29T05:57:44;11.10;99.90
21834;DHT22;11079;51.092;3.458;2022-12-29T06:00:24;11.00;99.90
21834;DHT22;11079;51.092;3.458;2022-12-29T06:02:51;11.00;99.90
21834;DHT22;11079;51.092;3.458;2022-12-29T06:05:18;11.10;99.90
21834;DHT22;11079;51.092;3.458;2022-12-29T06:07:46;11.00;99.90
21834;DHT22;11079;51.092;3.458;2022-12-29T06:10:12;11.00;99.90
21834;DHT22;11079;51.092;3.458;2022-12-29T06:12:38;10.90;99.90
21834;DHT22;11079;51.092;3.458;2022-12-29T06:15:05;10.90;99.90
21834;DHT22;11079;51.092;3.458;2022-12-29T06:17:31;10.90;99.90
21834;DHT22;11079;51.092;3.458;2022-12-29T06:19:57;10.90;99.90
21834;DHT22;11079;51.092;3.458;2022-12-29T06:22:41;11.00;99.90
21834;DHT22;11079;51.092;3.458;2022-12-29T06:25:10;11.10;99.90
21834;DHT22;11079;51.092;3.458;2022-12-29T06:27:35;11.00;99.90
21834;DHT22;11079;51.092;3.458;2022-12-29T06:30:13;11.00;99.90
21834;DHT22;11079;51.092;3.458;2022-12-29T06:32:42;10.80;99.90
21834;DHT22;11079;51.092;3.458;2022-12-29T06:35:18;10.60;99.90
21834;DHT22;11079;51.092;3.458;2022-12-29T06:37:44;10.50;99.90
21834;DHT22;11079;51.092;3.458;2022-12-29T06:40:28;10.30;99.90
21834;DHT22;11079;51.092;3.458;2022-12-29T06:42:54;10.10;99.90
21834;DHT22;11079;51.092;3.458;2022-12-29T06:45:20;10.20;99.90
21834;DHT22;11079;51.092;3.458;2022-12-29T06:47:47;10.00;99.90
21834;DHT22;11079;51.092;3.458;2022-12-29T06:50:13;10.00;99.90
21834;DHT22;11079;51.092;3.458;2022-12-29T06:52:40;10.10;99.90
21834;DHT22;11079;51.092;3.458;2022-12-29T06:55:08;10.10;99.90
21834;DHT22;11079;51.092;3.458;2022-12-29T06:57:37;10.10;99.90
21834;DHT22;11079;51.092;3.458;2022-12-29T07:00:04;10.20;99.90
21834;DHT22;11079;51.092;3.458;2022-12-29T07:02:30;10.30;99.90
21834;DHT22;11079;51.092;3.458;2022-12-29T07:04:59;10.40;99.90
21834;DHT22;11079;51.092;3.458;2022-12-29T07:07:54;10.40;99.90
21834;DHT22;11079;51.092;3.458;2022-12-29T07:10:24;10.60;99.90
21834;DHT22;11079;51.092;3.458;2022-12-29T07:12:54;10.60;99.90
21834;DHT22;11079;51.092;3.458;2022-12-29T07:15:37;10.70;99.90
21834;DHT22;11079;51.092;3.458;2022-12-29T07:18:04;10.80;99.90
21834;DHT22;11079;51.092;3.458;2022-12-29T07:20:30;10.80;99.90
21834;DHT22;11079;51.092;3.458;2022-12-29T07:22:56;10.80;99.90
21834;DHT22;11079;51.092;3.458;2022-12-29T07:25:22;10.80;99.90
21834;DHT22;11079;51.092;3.458;2022-12-29T07:27:48;10.90;99.90
21834;DHT22;11079;51.092;3.458;2022-12-29T07:30:18;10.90;99.90
21834;DHT22;11079;51.092;3.458;2022-12-29T07:32:43;10.90;99.90
21834;DHT22;11079;51.092;3.458;2022-12-29T07:35:09;10.90;99.90
21834;DHT22;11079;51.092;3.458;2022-12-29T07:37:35;10.90;99.90
21834;DHT22;11079;51.092;3.458;2022-12-29T07:40:01;11.00;99.90
21834;DHT22;11079;51.092;3.458;2022-12-29T07:42:28;10.90;99.90
21834;DHT22;11079;51.092;3.458;2022-12-29T07:44:54;10.90;99.90
21834;DHT22;11079;51.092;3.458;2022-12-29T07:47:20;10.80;99.90
21834;DHT22;11079;51.092;3.458;2022-12-29T07:49:45;10.80;99.90
21834;DHT22;11079;51.092;3.458;2022-12-29T07:52:11;10.80;99.90
21834;DHT22;11079;51.092;3.458;2022-12-29T07:54:36;10.70;99.90
21834;DHT22;11079;51.092;3.458;2022-12-29T07:57:02;10.50;99.90
21834;DHT22;11079;51.092;3.458;2022-12-29T07:59:28;10.30;99.90
21834;DHT22;11079;51.092;3.458;2022-12-29T08:01:53;10.30;99.90
21834;DHT22;11079;51.092;3.458;2022-12-29T08:04:19;10.20;99.90
21834;DHT22;11079;51.092;3.458;2022-12-29T08:06:45;10.00;99.90
21834;DHT22;11079;51.092;3.458;2022-12-29T08:09:10;9.90;99.90
21834;DHT22;11079;51.092;3.458;2022-12-29T08:11:36;9.80;99.90
21834;DHT22;11079;51.092;3.458;2022-12-29T08:14:02;9.70;99.90
21834;DHT22;11079;51.092;3.458;2022-12-29T08:16:29;9.60;99.90
21834;DHT22;11079;51.092;3.458;2022-12-29T08:18:56;9.70;99.90
21834;DHT22;11079;51.092;3.458;2022-12-29T08:21:21;9.60;99.90
21834;DHT22;11079;51.092;3.458;2022-12-29T08:23:47;9.60;99.90
21834;DHT22;11079;51.092;3.458;2022-12-29T08:26:13;9.60;99.90
21834;DHT22;11079;51.092;3.458;2022-12-29T08:28:39;9.60;99.90
21834;DHT22;11079;51.092;3.458;2022-12-29T08:31:05;9.60;99.90
21834;DHT22;11079;51.092;3.458;2022-12-29T08:33:30;9.60;99.90
21834;DHT22;11079;51.092;3.458;2022-12-29T08:36:01;9.70;99.90
21834;DHT22;11079;51.092;3.458;2022-12-29T08:38:27;9.70;99.90
21834;DHT22;11079;51.092;3.458;2022-12-29T08:40:54;9.70;99.90
21834;DHT22;11079;51.092;3.458;2022-12-29T08:43:19;9.60;99.90
21834;DHT22;11079;51.092;3.458;2022-12-29T08:45:45;9.60;99.90
21834;DHT22;11079;51.092;3.458;2022-12-29T08:48:11;9.60;99.90
21834;DHT22;11079;51.092;3.458;2022-12-29T08:50:36;9.50;99.90
21834;DHT22;11079;51.092;3.458;2022-12-29T08:53:02;9.50;99.90
21834;DHT22;11079;51.092;3.458;2022-12-29T08:55:27;9.60;99.90
21834;DHT22;11079;51.092;3.458;2022-12-29T08:57:53;9.60;99.90
21834;DHT22;11079;51.092;3.458;2022-12-29T09:00:19;9.70;99.90
21834;DHT22;11079;51.092;3.458;2022-12-29T09:02:45;9.70;99.90
21834;DHT22;11079;51.092;3.458;2022-12-29T09:05:11;9.80;99.90
21834;DHT22;11079;51.092;3.458;2022-12-29T09:07:37;9.80;99.90
21834;DHT22;11079;51.092;3.458;2022-12-29T09:10:03;9.80;99.90
21834;DHT22;11079;51.092;3.458;2022-12-29T09:12:29;9.80;99.90
21834;DHT22;11079;51.092;3.458;2022-12-29T09:14:54;9.80;99.90
21834;DHT22;11079;51.092;3.458;2022-12-29T09:17:20;9.90;99.90
21834;DHT22;11079;51.092;3.458;2022-12-29T09:20:08;9.90;99.90
21834;DHT22;11079;51.092;3.458;2022-12-29T09:22:34;10.00;99.90
21834;DHT22;11079;51.092;3.458;2022-12-29T09:25:00;10.10;99.90
21834;DHT22;11079;51.092;3.458;2022-12-29T09:27:26;10.00;99.90
21834;DHT22;11079;51.092;3.458;2022-12-29T09:29:52;10.10;99.90
21834;DHT22;11079;51.092;3.458;2022-12-29T09:32:17;10.20;99.90
21834;DHT22;11079;51.092;3.458;2022-12-29T09:34:43;10.20;99.90
21834;DHT22;11079;51.092;3.458;2022-12-29T09:37:08;10.00;99.90
21834;DHT22;11079;51.092;3.458;2022-12-29T09:39:34;10.00;99.90
21834;DHT22;11079;51.092;3.458;2022-12-29T09:47:43;10.30;99.90
21834;DHT22;11079;51.092;3.458;2022-12-29T09:50:20;10.30;99.90
21834;DHT22;11079;51.092;3.458;2022-12-29T09:55:30;10.60;99.90
21834;DHT22;11079;51.092;3.458;2022-12-29T09:58:41;10.80;99.90
21834;DHT22;11079;51.092;3.458;2022-12-29T10:01:44;10.80;99.90
21834;DHT22;11079;51.092;3.458;2022-12-29T10:04:13;10.60;99.90
21834;DHT22;11079;51.092;3.458;2022-12-29T10:12:46;10.60;99.90
21834;DHT22;11079;51.092;3.458;2022-12-29T10:18:37;10.50;99.90
21834;DHT22;11079;51.092;3.458;2022-12-29T10:23:48;10.70;99.90
21834;DHT22;11079;51.092;3.458;2022-12-29T10:26:23;10.90;99.90
21834;DHT22;11079;51.092;3.458;2022-12-29T10:29:18;11.40;99.90
21834;DHT22;11079;51.092;3.458;2022-12-29T10:31:59;12.60;99.90
21834;DHT22;11079;51.092;3.458;2022-12-29T10:36:58;13.60;99.90
21834;DHT22;11079;51.092;3.458;2022-12-29T10:39:50;13.90;99.90
21834;DHT22;11079;51.092;3.458;2022-12-29T10:44:51;13.60;99.90
21834;DHT22;11079;51.092;3.458;2022-12-29T10:47:21;13.00;99.90
21834;DHT22;11079;51.092;3.458;2022-12-29T10:49:47;12.40;99.90
21834;DHT22;11079;51.092;3.458;2022-12-29T10:52:15;12.10;99.90
21834;DHT22;11079;51.092;3.458;2022-12-29T10:57:45;12.20;99.90
21834;DHT22;11079;51.092;3.458;2022-12-29T11:00:19;12.20;99.90
21834;DHT22;11079;51.092;3.458;2022-12-29T11:08:22;11.70;99.90
21834;DHT22;11079;51.092;3.458;2022-12-29T11:11:01;11.50;99.90
21834;DHT22;11079;51.092;3.458;2022-12-29T11:13:51;11.60;99.90
21834;DHT22;11079;51.092;3.458;2022-12-29T11:16:34;11.40;99.90
21834;DHT22;11079;51.092;3.458;2022-12-29T11:19:01;11.20;99.90
21834;DHT22;11079;51.092;3.458;2022-12-29T11:21:34;11.10;99.90
21834;DHT22;11079;51.092;3.458;2022-12-29T11:24:05;11.10;99.90
21834;DHT22;11079;51.092;3.458;2022-12-29T11:26:32;11.10;99.90
21834;DHT22;11079;51.092;3.458;2022-12-29T11:29:17;11.00;99.90
21834;DHT22;11079;51.092;3.458;2022-12-29T11:31:56;10.90;99.90
21834;DHT22;11079;51.092;3.458;2022-12-29T11:34:33;11.00;99.90
21834;DHT22;11079;51.092;3.458;2022-12-29T11:37:20;10.70;99.90
21834;DHT22;11079;51.092;3.458;2022-12-29T11:39:57;10.40;99.90
21834;DHT22;11079;51.092;3.458;2022-12-29T11:45:14;10.30;99.90
21834;DHT22;11079;51.092;3.458;2022-12-29T11:47:44;10.30;99.90
21834;DHT22;11079;51.092;3.458;2022-12-29T11:50:20;10.40;99.90
21834;DHT22;11079;51.092;3.458;2022-12-29T11:52:48;10.40;99.90
21834;DHT22;11079;51.092;3.458;2022-12-29T11:55:23;10.40;99.90
21834;DHT22;11079;51.092;3.458;2022-12-29T11:57:52;10.40;99.90
21834;DHT22;11079;51.092;3.458;2022-12-29T12:00:21;10.60;99.90
21834;DHT22;11079;51.092;3.458;2022-12-29T12:05:43;10.60;99.90
21834;DHT22;11079;51.092;3.458;2022-12-29T12:08:17;10.60;99.90
21834;DHT22;11079;51.092;3.458;2022-12-29T12:10:53;10.70;99.90
21834;DHT22;11079;51.092;3.458;2022-12-29T12:13:32;10.60;99.90
21834;DHT22;11079;51.092;3.458;2022-12-29T12:16:20;10.50;99.90
21834;DHT22;11079;51.092;3.458;2022-12-29T12:18:52;10.60;99.90
21834;DHT22;11079;51.092;3.458;2022-12-29T12:21:34;10.60;99.90
21834;DHT22;11079;51.092;3.458;2022-12-29T12:27:20;10.90;99.90
21834;DHT22;11079;51.092;3.458;2022-12-29T12:30:00;11.10;99.90
21834;DHT22;11079;51.092;3.458;2022-12-29T12:35:14;11.10;99.90
21834;DHT22;11079;51.092;3.458;2022-12-29T12:38:03;11.10;99.90
21834;DHT22;11079;51.092;3.458;2022-12-29T13:00:09;10.80;99.90
21834;DHT22;11079;51.092;3.458;2022-12-29T13:08:18;10.40;99.90
21834;DHT22;11079;51.092;3.458;2022-12-29T13:17:08;10.40;99.90
21834;DHT22;11079;51.092;3.458;2022-12-29T13:19:48;10.30;99.90
21834;DHT22;11079;51.092;3.458;2022-12-29T13:28:37;9.90;99.90
21834;DHT22;11079;51.092;3.458;2022-12-29T13:36:05;9.70;99.90
21834;DHT22;11079;51.092;3.458;2022-12-29T13:38:43;9.70;99.90
21834;DHT22;11079;51.092;3.458;2022-12-29T13:41:13;9.70;99.90
21834;DHT22;11079;51.092;3.458;2022-12-29T13:43:40;9.60;99.90
21834;DHT22;11079;51.092;3.458;2022-12-29T13:46:27;9.70;99.90
21834;DHT22;11079;51.092;3.458;2022-12-29T13:49:02;9.80;99.90
21834;DHT22;11079;51.092;3.458;2022-12-29T13:51:30;9.90;99.90
21834;DHT22;11079;51.092;3.458;2022-12-29T14:02:31;9.80;99.90
21834;DHT22;11079;51.092;3.458;2022-12-29T14:06:03;9.70;99.90
21834;DHT22;11079;51.092;3.458;2022-12-29T14:07:58;9.70;99.90
21834;DHT22;11079;51.092;3.458;2022-12-29T14:13:21;9.60;99.90
21834;DHT22;11079;51.092;3.458;2022-12-29T14:15:56;9.70;99.90
21834;DHT22;11079;51.092;3.458;2022-12-29T14:18:32;9.80;99.90
21834;DHT22;11079;51.092;3.458;2022-12-29T14:28:47;10.50;99.90
21834;DHT22;11079;51.092;3.458;2022-12-29T14:36:36;10.30;99.90
21834;DHT22;11079;51.092;3.458;2022-12-29T14:39:03;10.10;99.90
21834;DHT22;11079;51.092;3.458;2022-12-29T14:41:30;10.00;99.90
21834;DHT22;11079;51.092;3.458;2022-12-29T14:46:24;9.90;99.90
21834;DHT22;11079;51.092;3.458;2022-12-29T14:48:56;9.80;99.90
21834;DHT22;11079;51.092;3.458;2022-12-29T14:51:35;9.70;99.90
21834;DHT22;11079;51.092;3.458;2022-12-29T14:54:40;9.70;99.90
21834;DHT22;11079;51.092;3.458;2022-12-29T14:57:20;9.80;99.90
21834;DHT22;11079;51.092;3.458;2022-12-29T14:59:48;9.60;99.90
21834;DHT22;11079;51.092;3.458;2022-12-29T15:02:21;9.70;99.90
21834;DHT22;11079;51.092;3.458;2022-12-29T15:04:47;9.60;99.90
21834;DHT22;11079;51.092;3.458;2022-12-29T15:07:14;9.80;99.90
21834;DHT22;11079;51.092;3.458;2022-12-29T15:09:43;9.80;99.90
21834;DHT22;11079;51.092;3.458;2022-12-29T15:14:52;9.70;99.90
21834;DHT22;11079;51.092;3.458;2022-12-29T15:17:26;9.70;99.90
21834;DHT22;11079;51.092;3.458;2022-12-29T15:19:53;9.60;99.90
21834;DHT22;11079;51.092;3.458;2022-12-29T15:22:19;9.50;99.90
21834;DHT22;11079;51.092;3.458;2022-12-29T15:24:45;9.40;99.90
21834;DHT22;11079;51.092;3.458;2022-12-29T15:27:15;9.40;99.90
21834;DHT22;11079;51.092;3.458;2022-12-29T15:29:44;9.50;99.90
21834;DHT22;11079;51.092;3.458;2022-12-29T15:32:20;9.50;99.90
21834;DHT22;11079;51.092;3.458;2022-12-29T15:34:58;9.40;99.90
21834;DHT22;11079;51.092;3.458;2022-12-29T15:37:33;9.50;99.90
21834;DHT22;11079;51.092;3.458;2022-12-29T15:40:01;9.30;99.90
21834;DHT22;11079;51.092;3.458;2022-12-29T15:45:37;9.20;99.90
21834;DHT22;11079;51.092;3.458;2022-12-29T15:48:04;9.20;99.90
21834;DHT22;11079;51.092;3.458;2022-12-29T15:50:33;9.10;99.90
21834;DHT22;11079;51.092;3.458;2022-12-29T15:53:02;8.90;99.90
21834;DHT22;11079;51.092;3.458;2022-12-29T15:55:34;8.90;99.90
21834;DHT22;11079;51.092;3.458;2022-12-29T15:58:03;8.90;99.90
21834;DHT22;11079;51.092;3.458;2022-12-29T16:00:35;8.90;99.90
21834;DHT22;11079;51.092;3.458;2022-12-29T16:03:05;8.80;99.90
21834;DHT22;11079;51.092;3.458;2022-12-29T16:05:39;8.70;99.90
21834;DHT22;11079;51.092;3.458;2022-12-29T16:08:38;8.70;99.90
21834;DHT22;11079;51.092;3.458;2022-12-29T16:11:22;8.70;99.90
21834;DHT22;11079;51.092;3.458;2022-12-29T16:13:50;8.60;99.90
21834;DHT22;11079;51.092;3.458;2022-12-29T16:16:26;8.60;99.90
21834;DHT22;11079;51.092;3.458;2022-12-29T16:18:53;8.50;99.90
21834;DHT22;11079;51.092;3.458;2022-12-29T16:21:26;8.50;99.90
21834;DHT22;11079;51.092;3.458;2022-12-29T16:23:55;8.40;99.90
21834;DHT22;11079;51.092;3.458;2022-12-29T16:26:23;8.40;99.90
21834;DHT22;11079;51.092;3.458;2022-12-29T16:28:57;8.40;99.90
21834;DHT22;11079;51.092;3.458;2022-12-29T16:31:47;8.40;99.90
21834;DHT22;11079;51.092;3.458;2022-12-29T16:37:28;8.20;99.90
21834;DHT22;11079;51.092;3.458;2022-12-29T16:39:54;8.30;99.90
21834;DHT22;11079;51.092;3.458;2022-12-29T16:46:11;8.30;99.90
21834;DHT22;11079;51.092;3.458;2022-12-29T16:48:36;8.40;99.90
21834;DHT22;11079;51.092;3.458;2022-12-29T16:51:18;8.40;99.90
21834;DHT22;11079;51.092;3.458;2022-12-29T16:53:52;8.30;99.90
21834;DHT22;11079;51.092;3.458;2022-12-29T16:56:23;8.30;99.90
21834;DHT22;11079;51.092;3.458;2022-12-29T16:59:00;8.30;99.90
21834;DHT22;11079;51.092;3.458;2022-12-29T17:01:27;8.40;99.90
21834;DHT22;11079;51.092;3.458;2022-12-29T17:03:58;8.40;99.90
21834;DHT22;11079;51.092;3.458;2022-12-29T17:06:25;8.60;99.90
21834;DHT22;11079;51.092;3.458;2022-12-29T17:08:51;8.30;99.90
21834;DHT22;11079;51.092;3.458;2022-12-29T17:11:31;8.40;99.90
21834;DHT22;11079;51.092;3.458;2022-12-29T17:14:41;8.50;99.90
21834;DHT22;11079;51.092;3.458;2022-12-29T17:17:18;8.40;99.90
21834;DHT22;11079;51.092;3.458;2022-12-29T17:19:52;8.40;99.90
21834;DHT22;11079;51.092;3.458;2022-12-29T17:24:46;8.40;99.90
21834;DHT22;11079;51.092;3.458;2022-12-29T17:27:22;8.60;99.90
21834;DHT22;11079;51.092;3.458;2022-12-29T17:29:50;8.40;99.90
21834;DHT22;11079;51.092;3.458;2022-12-29T17:32:16;8.40;99.90
21834;DHT22;11079;51.092;3.458;2022-12-29T17:34:41;8.50;99.90
21834;DHT22;11079;51.092;3.458;2022-12-29T17:37:28;8.40;99.90
21834;DHT22;11079;51.092;3.458;2022-12-29T17:39:55;8.50;99.90
21834;DHT22;11079;51.092;3.458;2022-12-29T17:42:21;8.30;99.90
21834;DHT22;11079;51.092;3.458;2022-12-29T17:44:46;8.50;99.90
21834;DHT22;11079;51.092;3.458;2022-12-29T17:47:13;8.50;99.90
21834;DHT22;11079;51.092;3.458;2022-12-29T17:49:41;8.60;99.90
21834;DHT22;11079;51.092;3.458;2022-12-29T17:52:12;8.60;99.90
21834;DHT22;11079;51.092;3.458;2022-12-29T17:54:49;8.60;99.90
21834;DHT22;11079;51.092;3.458;2022-12-29T17:57:31;8.50;99.90
21834;DHT22;11079;51.092;3.458;2022-12-29T18:00:23;8.40;99.90
21834;DHT22;11079;51.092;3.458;2022-12-29T18:02:53;8.50;99.90
21834;DHT22;11079;51.092;3.458;2022-12-29T18:05:30;8.40;99.90
21834;DHT22;11079;51.092;3.458;2022-12-29T18:07:59;8.40;99.90
21834;DHT22;11079;51.092;3.458;2022-12-29T18:10:30;8.50;99.90
21834;DHT22;11079;51.092;3.458;2022-12-29T18:12:59;8.40;99.90
21834;DHT22;11079;51.092;3.458;2022-12-29T18:15:41;8.40;99.90
21834;DHT22;11079;51.092;3.458;2022-12-29T18:18:15;8.50;99.90
21834;DHT22;11079;51.092;3.458;2022-12-29T18:20:52;8.50;99.90
21834;DHT22;11079;51.092;3.458;2022-12-29T18:26:11;8.60;99.90
21834;DHT22;11079;51.092;3.458;2022-12-29T18:28:45;8.60;99.90
21834;DHT22;11079;51.092;3.458;2022-12-29T18:31:34;8.60;99.90
21834;DHT22;11079;51.092;3.458;2022-12-29T18:34:11;8.60;99.90
21834;DHT22;11079;51.092;3.458;2022-12-29T18:36:37;8.40;99.90
21834;DHT22;11079;51.092;3.458;2022-12-29T18:39:29;8.60;99.90
21834;DHT22;11079;51.092;3.458;2022-12-29T18:41:55;8.50;99.90
21834;DHT22;11079;51.092;3.458;2022-12-29T18:44:22;8.50;99.90
21834;DHT22;11079;51.092;3.458;2022-12-29T18:46:51;8.50;99.90